Bluff Estates, South Carolina
Current Conditions -  °F | °C
As of 12:53 AM on Sunday 23 Nov 2014 (Local Time) from KCUB Reporting Station
Light Rain Light Rain  
Wind Chill: 51°   Ceiling: 11000
Heat Index: 51°   Visibility: 10mi
Dew Point: 42°   Wind: 0mph
Humidity: 71%   Direction: NA
Pressure: 30.27"   Gusts: NA
Location:  33.9488°N, 80.9462°W
Report Text: KCUB 230553Z AUTO 00000KT 10SM -RA OVC110 11/06 A3027 RMK AO2 RAB52 SLP249 P0000 60000 T01060056 10117 20089 58014
Loading
Personal Weather Stations






























Interactive Weather Map New forecast layout! Learn more

10-Day Weather Forecast

Advertisements
Track Severe Weather on mobile